Aérodrome :
LOGIN :

S'inscrire | Disclaimer

   EN    FR    IT 

 










Légende :    VFR   VFR Marginal   IFR   IFR Intensif   IFR Très Intensif
Visi : 
Plafond : 
>= 8 km
>= 3000ft
5 à 8 km
1000 à 3000 ft
1500m à 5 km
500 à 1000 ft
800 à 1500m
200 à 500 ft
< 800m
< 200 ft
Symboles :   Orages  Brouillard  Fortes neiges  Fortes précipitations  Vent > 20 kt
SIGMETs :   Divers  Orages  Givrage  Turbulence  Onde Orograph.  Cendres Volcan.







- Altitude de l'aérodrome : 1989 ft
- Code IATA : KLV


LKKV - Karlovy Vary

DERNIER METAR :
  • 180630Z 11002KT 0700 0300E R29/0250N FG FEW001 04/04 Q1020

METARs EXPIRÉS :
  • 180622Z 12001KT 0600 0300E R29/0250N FG FEW001 04/04 Q1020 RMK REG QNH 1017
  • 180600Z 00000KT 0300 R29/0200N FG FEW001 04/04 Q1020
  • 180517Z 11002KT 0300 R29/0375N FG SCT003 03/03 Q1020 RMK REG QNH 1016
  • 180500Z 31002KT 9999 R29/0500N MIFG BCFG NSC 06/06 Q1020
  • 180400Z 11002KT 3500 R29/0450U BR BCFG SCT005 04/04 Q1019

TAF TAF LKKV
Valide du 18 à 06h jusqu'au 19 à 12h UTC


180500Z 1806/1912 VRB02KT 3000 BR SCT002
TEMPO 1806/1808 1200 MIFG SCT001
PROB30
TEMPO 1806/1807 0500 FG BKN001
BECMG 1808/1810 35006KT CAVOK
BECMG 1818/1820 2000 MIFG SCT002
TEMPO 1822/1907 1200 BR BKN002
PROB30
TEMPO 1900/1907 0500 FG VV001
BECMG 1907/1909 CAVOK
Pas de NOTAMs connus pour ce terrain.



MET'MAP, la Météo Aéronautique d'un coup d'oeil ! - Copyright ORBIFLY Décembre 2007 - Disclaimer

ORBIFLY MET'MAP TEAM :

Programmation & Développement : Alexandra Zaïnal
Conception & Développement : Baudouin d'Aumeries
Co-Programmation & Développement : Marc-Olivier Méhu
Soutien technique & logistique : Manuel Goepfert

Contact : metmap@orbifly.com




SOURCES & CREDITS :

   NOAA